TimeCST,TemperatureF,Dew PointF,Humidity,Sea Level PressureIn,VisibilityMPH,Wind Direction,Wind SpeedMPH,Gust SpeedMPH,PrecipitationIn,Events,Conditions,WindDirDegrees,DateUTC
12:15 AM,30.2,26.6,86,30.37,10.0,SSE,4.6,-,N/A,,Clear,160,2012-11-15 06:15:00
12:35 AM,30.0,26.6,87,30.37,7.0,SSE,4.6,-,N/A,,Clear,160,2012-11-15 06:35:00
12:55 AM,29.5,26.4,88,30.37,7.0,SSE,5.8,-,N/A,,Clear,150,2012-11-15 06:55:00
1:15 AM,29.5,26.8,90,30.37,7.0,SSE,4.6,-,N/A,,Clear,160,2012-11-15 07:15:00
1:35 AM,29.3,26.4,89,30.37,7.0,SSE,5.8,-,N/A,,Clear,150,2012-11-15 07:35:00
1:55 AM,28.6,26.8,93,30.37,7.0,SSE,4.6,-,N/A,,Clear,160,2012-11-15 07:55:00
2:15 AM,29.3,27.1,92,30.37,7.0,SSE,3.5,-,N/A,,Clear,150,2012-11-15 08:15:00
2:35 AM,29.1,27.1,92,30.37,7.0,SSE,4.6,-,N/A,,Clear,150,2012-11-15 08:35:00
2:55 AM,27.7,26.2,94,30.36,5.0,South,3.5,-,N/A,,Clear,170,2012-11-15 08:55:00
3:15 AM,28.6,27.3,95,30.36,5.0,South,3.5,-,N/A,,Clear,170,2012-11-15 09:15:00
3:35 AM,28.0,27.1,96,30.35,5.0,SSE,3.5,-,N/A,,Clear,160,2012-11-15 09:35:00
3:55 AM,26.6,25.7,96,30.35,5.0,SE,3.5,-,N/A,,Clear,140,2012-11-15 09:55:00
4:15 AM,28.2,27.7,98,30.36,5.0,SE,3.5,-,N/A,,Clear,140,2012-11-15 10:15:00
4:35 AM,27.3,26.2,96,30.36,5.0,SE,4.6,-,N/A,,Clear,140,2012-11-15 10:35:00
4:55 AM,26.6,25.5,96,30.35,5.0,SSE,5.8,-,N/A,,Clear,150,2012-11-15 10:55:00
5:15 AM,26.8,26.1,97,30.36,4.0,SSE,4.6,-,N/A,,Clear,160,2012-11-15 11:15:00
5:35 AM,26.4,25.7,97,30.35,3.0,SSE,4.6,-,N/A,,Clear,160,2012-11-15 11:35:00
5:55 AM,27.0,26.6,99,30.35,4.0,SSE,3.5,-,N/A,,Clear,150,2012-11-15 11:55:00
6:15 AM,26.4,25.7,97,30.36,3.0,SSE,3.5,-,N/A,,Clear,160,2012-11-15 12:15:00
6:35 AM,27.0,26.4,98,30.35,2.5,SSE,4.6,-,N/A,,Clear,150,2012-11-15 12:35:00
6:55 AM,27.5,26.8,97,30.36,2.5,South,4.6,-,N/A,,Clear,170,2012-11-15 12:55:00
7:15 AM,28.4,27.5,96,30.37,3.0,South,4.6,-,N/A,,Clear,170,2012-11-15 13:15:00
7:35 AM,29.5,28.6,96,30.38,2.5,South,4.6,-,N/A,,Clear,180,2012-11-15 13:35:00
7:55 AM,30.7,29.7,96,30.38,3.0,South,3.5,-,N/A,,Clear,180,2012-11-15 13:55:00
8:15 AM,31.3,30.0,95,30.39,3.0,South,3.5,-,N/A,,Clear,170,2012-11-15 14:15:00
8:35 AM,32.0,30.4,94,30.39,3.0,SSW,3.5,-,N/A,,Clear,200,2012-11-15 14:35:00
8:55 AM,33.3,31.5,93,30.39,4.0,SSW,4.6,-,N/A,,Clear,200,2012-11-15 14:55:00
9:15 AM,34.3,31.8,90,30.39,4.0,South,3.5,-,N/A,,Clear,180,2012-11-15 15:15:00
9:35 AM,36.0,32.0,86,30.39,5.0,South,5.8,-,N/A,,Clear,190,2012-11-15 15:35:00
9:55 AM,36.7,31.3,81,30.40,5.0,South,5.8,-,N/A,,Haze,190,2012-11-15 15:55:00
10:15 AM,38.5,31.1,75,30.40,7.0,SSW,4.6,-,N/A,,Clear,210,2012-11-15 16:15:00
10:35 AM,39.9,30.7,70,30.39,7.0,SSW,5.8,-,N/A,,Clear,210,2012-11-15 16:35:00
10:55 AM,40.5,30.2,67,30.38,7.0,SSW,4.6,-,N/A,,Clear,200,2012-11-15 16:55:00
11:15 AM,40.8,30.2,66,30.37,7.0,SW,5.8,-,N/A,,Clear,230,2012-11-15 17:15:00
11:35 AM,41.0,30.2,65,30.36,10.0,SW,5.8,-,N/A,,Clear,220,2012-11-15 17:35:00
11:55 AM,42.3,29.5,61,30.36,10.0,SW,3.5,-,N/A,,Clear,220,2012-11-15 17:55:00
12:15 PM,43.0,29.1,58,30.35,10.0,SSW,4.6,-,N/A,,Clear,200,2012-11-15 18:15:00
12:35 PM,43.5,29.5,58,30.34,10.0,Calm,Calm,-,N/A,,Clear,0,2012-11-15 18:35:00
12:55 PM,44.1,29.3,56,30.34,10.0,WSW,3.5,-,N/A,,Clear,240,2012-11-15 18:55:00
1:15 PM,44.6,28.6,53,30.33,10.0,SW,5.8,-,N/A,,Clear,230,2012-11-15 19:15:00
1:35 PM,44.8,27.7,51,30.33,10.0,WSW,4.6,-,N/A,,Clear,250,2012-11-15 19:35:00
1:55 PM,45.1,28.0,51,30.32,10.0,SW,4.6,-,N/A,,Clear,220,2012-11-15 19:55:00
2:15 PM,45.3,28.6,52,30.32,10.0,SSW,3.5,-,N/A,,Clear,210,2012-11-15 20:15:00
2:35 PM,45.7,28.2,51,30.32,10.0,WSW,5.8,-,N/A,,Clear,240,2012-11-15 20:35:00
2:55 PM,45.7,27.7,49,30.32,10.0,SW,4.6,-,N/A,,Clear,220,2012-11-15 20:55:00
3:15 PM,45.9,27.9,49,30.32,10.0,SW,5.8,-,N/A,,Clear,220,2012-11-15 21:15:00
3:35 PM,46.4,28.4,50,30.33,10.0,SW,5.8,-,N/A,,Clear,220,2012-11-15 21:35:00
3:55 PM,44.1,28.2,54,30.33,10.0,SW,5.8,-,N/A,,Clear,220,2012-11-15 21:55:00
4:15 PM,43.0,27.5,54,30.33,10.0,WSW,3.5,-,N/A,,Clear,240,2012-11-15 22:15:00
4:35 PM,42.8,28.4,57,30.33,10.0,WSW,3.5,-,N/A,,Clear,250,2012-11-15 22:35:00
4:55 PM,41.7,27.5,57,30.34,10.0,SW,3.5,-,N/A,,Clear,230,2012-11-15 22:55:00
5:15 PM,39.9,26.6,59,30.34,7.0,South,5.8,-,N/A,,Clear,190,2012-11-15 23:15:00
5:35 PM,37.9,27.1,65,30.34,10.0,South,4.6,-,N/A,,Clear,190,2012-11-15 23:35:00
5:55 PM,37.9,28.0,68,30.35,10.0,South,3.5,-,N/A,,Clear,190,2012-11-15 23:55:00
6:15 PM,37.9,27.9,67,30.35,10.0,South,4.6,-,N/A,,Clear,190,2012-11-16 00:15:00
6:35 PM,38.3,28.0,67,30.35,10.0,Calm,Calm,-,N/A,,Scattered Clouds,0,2012-11-16 00:35:00
6:55 PM,37.9,27.7,67,30.35,10.0,South,4.6,-,N/A,,Scattered Clouds,180,2012-11-16 00:55:00
7:15 PM,37.4,30.2,75,30.36,10.0,South,5.8,-,N/A,,Clear,170,2012-11-16 01:15:00
7:35 PM,37.4,30.2,75,30.36,10.0,SSE,6.9,-,N/A,,Clear,160,2012-11-16 01:35:00
8:10 PM,33.8,28.4,81,30.36,7.0,South,5.8,-,N/A,,Clear,180,2012-11-16 02:10:00
8:31 PM,33.8,28.4,81,30.36,7.0,South,6.9,-,N/A,,Clear,170,2012-11-16 02:31:00
8:51 PM,35.6,28.4,75,30.36,7.0,South,4.6,-,N/A,,Clear,190,2012-11-16 02:51:00
9:15 PM,34.5,28.4,78,30.36,7.0,South,4.6,-,N/A,,Clear,190,2012-11-16 03:15:00
9:35 PM,34.7,28.4,78,30.37,7.0,South,4.6,-,N/A,,Clear,180,2012-11-16 03:35:00
9:55 PM,32.7,28.9,86,30.37,7.0,South,5.8,-,N/A,,Clear,170,2012-11-16 03:55:00
10:15 PM,33.1,28.9,85,30.37,7.0,South,4.6,-,N/A,,Clear,180,2012-11-16 04:15:00
10:35 PM,33.6,28.4,81,30.37,7.0,SSE,4.6,-,N/A,,Clear,160,2012-11-16 04:35:00
10:55 PM,33.1,29.1,85,30.37,7.0,South,4.6,-,N/A,,Clear,170,2012-11-16 04:55:00
11:15 PM,32.7,28.2,83,30.37,7.0,South,4.6,-,N/A,,Clear,180,2012-11-16 05:15:00
11:35 PM,33.1,28.4,83,30.37,7.0,South,3.5,-,N/A,,Clear,170,2012-11-16 05:35:00
11:55 PM,31.8,27.3,83,30.37,7.0,South,4.6,-,N/A,,Clear,170,2012-11-16 05:55:00